createdAt,value
2022-12-11T00:02:10.992Z,3.40
2022-12-11T00:05:52.864Z,4.50
2022-12-11T00:09:34.652Z,4.17
2022-12-11T00:13:16.495Z,3.30
2022-12-11T00:16:58.285Z,3.37
2022-12-11T00:20:40.134Z,3.30
2022-12-11T00:24:21.895Z,2.57
2022-12-11T00:28:03.647Z,3.37
2022-12-11T00:31:45.459Z,2.73
2022-12-11T00:35:27.324Z,2.50
2022-12-11T00:39:09.113Z,2.60
2022-12-11T00:42:50.938Z,2.80
2022-12-11T00:46:32.829Z,3.17
2022-12-11T00:50:14.643Z,3.37
2022-12-11T00:53:56.488Z,4.30
2022-12-11T00:57:38.229Z,4.20
2022-12-11T01:01:24.655Z,4.07
2022-12-11T01:05:06.955Z,3.80
2022-12-11T01:09:09.407Z,3.67
2022-12-11T01:12:54.205Z,3.93
2022-12-11T01:16:36.263Z,4.20
2022-12-11T01:20:19.695Z,4.60
2022-12-11T01:24:01.610Z,5.17
2022-12-11T01:27:43.425Z,5.23
2022-12-11T01:31:25.184Z,5.13
2022-12-11T01:35:09.283Z,4.80
2022-12-11T01:38:51.925Z,4.50
2022-12-11T01:42:34.298Z,4.07
2022-12-11T01:46:16.112Z,3.77
2022-12-11T01:49:57.998Z,4.27
2022-12-11T01:53:43.661Z,3.37
2022-12-11T01:57:25.445Z,3.73
2022-12-11T02:01:07.885Z,2.70
2022-12-11T02:04:49.857Z,2.33
2022-12-11T02:08:31.720Z,3.17
2022-12-11T02:12:23.904Z,2.93
2022-12-11T02:16:11.140Z,3.00
2022-12-11T02:20:09.787Z,2.80
2022-12-11T02:24:06.986Z,2.83
2022-12-11T02:28:03.154Z,2.83
2022-12-11T02:32:02.462Z,3.60
2022-12-11T02:35:46.990Z,3.50
2022-12-11T02:39:29.613Z,4.07
2022-12-11T02:43:14.743Z,4.17
2022-12-11T02:46:57.437Z,16.83
2022-12-11T02:50:44.379Z,6.40
2022-12-11T02:54:31.424Z,4.97
2022-12-11T02:58:23.716Z,4.33
2022-12-11T03:02:06.591Z,5.03
2022-12-11T03:09:54.648Z,4.63
2022-12-11T03:13:36.580Z,5.10
2022-12-11T03:17:21.245Z,4.83
2022-12-11T03:21:14.565Z,5.37
2022-12-11T03:25:04.998Z,5.70
2022-12-11T03:29:03.211Z,4.97
2022-12-11T03:32:58.639Z,5.90
2022-12-11T03:36:41.936Z,5.33
2022-12-11T03:40:26.292Z,5.13
2022-12-11T03:44:09.206Z,4.93
2022-12-11T03:47:53.864Z,4.73
2022-12-11T03:51:36.599Z,5.00
2022-12-11T03:55:21.166Z,4.27
2022-12-11T03:59:02.915Z,4.50
2022-12-11T04:02:45.234Z,4.90
2022-12-11T04:06:27.164Z,4.30
2022-12-11T04:10:09.029Z,3.93
2022-12-11T04:14:11.007Z,4.33
2022-12-11T04:18:11.331Z,3.93
2022-12-11T04:22:11.816Z,3.90
2022-12-11T04:25:53.618Z,4.13
2022-12-11T04:29:35.384Z,4.70
2022-12-11T04:33:17.179Z,4.60
2022-12-11T04:36:58.928Z,4.60
2022-12-11T04:40:40.780Z,4.70
2022-12-11T04:44:22.531Z,4.10
2022-12-11T04:48:04.545Z,3.83
2022-12-11T04:51:46.281Z,3.97
2022-12-11T04:55:28.040Z,3.90
2022-12-11T04:59:09.984Z,4.00
2022-12-11T05:02:51.779Z,3.83
2022-12-11T05:06:33.578Z,4.17
2022-12-11T05:10:15.411Z,3.60
2022-12-11T05:13:57.214Z,3.47
2022-12-11T05:17:39.105Z,4.27
2022-12-11T05:21:20.947Z,5.15
2022-12-11T05:25:02.748Z,6.70
2022-12-11T05:28:45.756Z,6.87
2022-12-11T05:32:27.559Z,6.13
2022-12-11T05:36:14.036Z,6.63
2022-12-11T05:39:55.830Z,7.00
2022-12-11T05:43:37.717Z,6.80
2022-12-11T05:47:20.951Z,6.57
2022-12-11T05:51:04.317Z,7.27
2022-12-11T05:54:49.359Z,6.50
2022-12-11T05:58:31.998Z,7.03
2022-12-11T06:02:13.901Z,7.23
2022-12-11T06:05:55.783Z,6.93
2022-12-11T06:09:37.560Z,7.40
2022-12-11T06:13:19.344Z,7.23
2022-12-11T06:17:01.623Z,6.17
2022-12-11T06:20:43.401Z,5.63
2022-12-11T06:24:25.168Z,5.83
2022-12-11T06:28:07.095Z,5.47
2022-12-11T06:31:48.944Z,5.40
2022-12-11T06:35:30.781Z,4.77
2022-12-11T06:39:12.546Z,5.93
2022-12-11T06:42:54.936Z,5.17
2022-12-11T06:46:36.718Z,5.37
2022-12-11T06:50:18.526Z,4.40
2022-12-11T06:54:00.314Z,4.63
2022-12-11T06:57:42.162Z,4.37
2022-12-11T07:01:26.677Z,4.83
2022-12-11T07:05:09.056Z,5.03
2022-12-11T07:08:51.300Z,5.90
2022-12-11T07:12:33.040Z,6.03
2022-12-11T07:16:16.497Z,5.80
2022-12-11T07:19:58.543Z,5.07
2022-12-11T07:23:40.909Z,6.03
2022-12-11T07:27:22.927Z,8.17
2022-12-11T07:31:10.434Z,6.53
2022-12-11T07:34:52.344Z,6.93
2022-12-11T07:38:34.220Z,5.93
2022-12-11T07:42:15.962Z,6.10
2022-12-11T07:46:09.605Z,5.73
2022-12-11T07:49:51.393Z,6.03
2022-12-11T07:53:33.138Z,6.17
2022-12-11T07:57:14.965Z,6.10
2022-12-11T08:00:58.153Z,5.53
2022-12-11T08:04:39.993Z,5.30
2022-12-11T08:08:21.825Z,5.70
2022-12-11T08:12:03.844Z,5.63
2022-12-11T08:15:45.595Z,5.83
2022-12-11T08:19:28.255Z,5.93
2022-12-11T08:23:10.028Z,6.13
2022-12-11T08:26:51.808Z,6.40
2022-12-11T08:30:33.789Z,6.30
2022-12-11T08:34:15.809Z,6.33
2022-12-11T08:37:57.574Z,6.53
2022-12-11T08:41:39.300Z,7.07
2022-12-11T08:45:21.063Z,7.33
2022-12-11T08:49:02.885Z,7.57
2022-12-11T08:52:44.674Z,8.40
2022-12-11T08:56:27.871Z,8.83
2022-12-11T09:00:12.430Z,7.93
2022-12-11T09:03:55.628Z,7.03
2022-12-11T09:07:39.338Z,7.70
2022-12-11T09:11:28.055Z,7.70
2022-12-11T09:15:10.659Z,7.07
2022-12-11T09:18:54.807Z,7.47
2022-12-11T09:22:36.575Z,6.70
2022-12-11T09:26:19.163Z,7.00
2022-12-11T09:30:01.274Z,6.90
2022-12-11T09:33:43.567Z,6.57
2022-12-11T09:37:25.361Z,7.03
2022-12-11T09:41:31.988Z,6.40
2022-12-11T09:45:15.966Z,7.17
2022-12-11T09:48:58.043Z,7.43
2022-12-11T09:52:58.351Z,7.93
2022-12-11T09:56:46.190Z,7.97
2022-12-11T10:00:39.618Z,8.60
2022-12-11T10:05:12.306Z,8.67
2022-12-11T10:09:11.215Z,17.53
2022-12-11T10:13:30.400Z,8.70
2022-12-11T10:17:32.034Z,7.03
2022-12-11T10:21:16.369Z,7.50
2022-12-11T10:25:16.828Z,7.87
2022-12-11T10:29:00.782Z,6.90
2022-12-11T10:33:06.528Z,7.60
2022-12-11T10:36:48.445Z,7.30
2022-12-11T10:40:33.433Z,6.53
2022-12-11T10:44:17.109Z,6.40
2022-12-11T10:48:12.578Z,7.03
2022-12-11T10:52:01.384Z,6.80
2022-12-11T10:55:48.144Z,6.87
2022-12-11T10:59:56.314Z,7.17
2022-12-11T11:04:06.703Z,7.23
2022-12-11T11:07:48.578Z,8.03
2022-12-11T11:11:35.099Z,9.80
2022-12-11T11:15:22.624Z,11.13
2022-12-11T11:19:04.956Z,11.90
2022-12-11T11:22:52.320Z,11.67
2022-12-11T11:27:11.194Z,11.30
2022-12-11T11:30:41.950Z,10.97
2022-12-11T11:34:26.133Z,11.77
2022-12-11T11:38:19.573Z,12.13
2022-12-11T11:42:11.843Z,11.17
2022-12-11T11:46:01.863Z,10.57
2022-12-11T11:49:46.766Z,11.17
2022-12-11T11:53:37.322Z,11.87
2022-12-11T11:57:29.304Z,11.98
2022-12-11T12:01:20.235Z,10.43
2022-12-11T12:05:03.505Z,11.65
2022-12-11T12:09:06.905Z,9.97
2022-12-11T12:13:44.432Z,10.90
2022-12-11T12:17:23.365Z,11.10
2022-12-11T12:21:17.378Z,11.63
2022-12-11T12:25:20.927Z,10.33
2022-12-11T12:29:27.092Z,9.97
2022-12-11T12:33:28.805Z,9.20
2022-12-11T12:37:32.876Z,8.90
2022-12-11T12:41:23.111Z,10.00
2022-12-11T12:45:15.814Z,7.60
2022-12-11T12:49:00.193Z,9.03
2022-12-11T12:52:42.617Z,10.03
2022-12-11T12:56:26.127Z,10.33
2022-12-11T13:00:13.100Z,11.30
2022-12-11T13:04:08.665Z,14.93
2022-12-11T13:08:02.561Z,12.60
2022-12-11T13:11:46.028Z,9.63
2022-12-11T13:15:34.523Z,11.47
2022-12-11T13:19:25.527Z,11.10
2022-12-11T13:23:07.267Z,10.50
2022-12-11T13:26:50.266Z,12.13
2022-12-11T13:30:32.295Z,12.13
2022-12-11T13:34:18.592Z,12.50
2022-12-11T13:38:21.097Z,13.43
2022-12-11T13:42:11.926Z,14.17
2022-12-11T13:46:04.026Z,14.23
2022-12-11T13:49:50.020Z,13.70
2022-12-11T13:53:32.296Z,14.00
2022-12-11T13:57:23.663Z,15.67
2022-12-11T14:01:14.399Z,14.97
2022-12-11T14:05:06.547Z,14.07
2022-12-11T14:08:53.532Z,14.00
2022-12-11T14:12:36.831Z,13.33
2022-12-11T14:16:22.392Z,14.03
2022-12-11T14:20:09.235Z,13.73
2022-12-11T14:24:00.513Z,14.50
2022-12-11T14:31:34.351Z,16.40
2022-12-11T14:35:38.884Z,12.70
2022-12-11T14:39:32.349Z,14.20
2022-12-11T14:43:31.735Z,13.07
2022-12-11T14:47:26.929Z,14.03
2022-12-11T14:51:15.054Z,13.27
2022-12-11T14:55:25.200Z,13.47
2022-12-11T14:59:15.951Z,13.57
2022-12-11T15:03:06.386Z,18.02
2022-12-11T15:06:50.768Z,12.60
2022-12-11T15:10:41.270Z,14.40
2022-12-11T15:14:25.206Z,14.10
2022-12-11T15:18:16.491Z,13.20
2022-12-11T15:25:56.819Z,12.30
2022-12-11T15:29:40.138Z,13.67
2022-12-11T15:33:22.281Z,14.90
2022-12-11T15:37:04.300Z,14.43
2022-12-11T15:40:46.076Z,16.23
2022-12-11T15:44:27.868Z,14.63
2022-12-11T15:48:11.489Z,14.83
2022-12-11T15:51:54.684Z,15.33
2022-12-11T15:55:40.159Z,15.00
2022-12-11T15:59:22.224Z,14.10
2022-12-11T16:03:04.764Z,12.77
2022-12-11T16:06:46.957Z,13.73
2022-12-11T16:10:29.073Z,11.50
2022-12-11T16:14:13.056Z,13.70
2022-12-11T16:18:16.304Z,12.77
2022-12-11T16:21:58.235Z,12.87
2022-12-11T16:25:42.198Z,11.37
2022-12-11T16:29:24.094Z,12.67
2022-12-11T16:33:12.000Z,12.40
2022-12-11T16:36:58.443Z,12.20
2022-12-11T16:40:41.475Z,16.03
2022-12-11T16:44:24.994Z,13.53
2022-12-11T16:48:06.917Z,11.57
2022-12-11T16:51:49.585Z,11.57
2022-12-11T16:55:31.682Z,12.33
2022-12-11T16:59:13.558Z,11.83
2022-12-11T17:02:55.658Z,11.10
2022-12-11T17:06:37.440Z,10.13
2022-12-11T17:10:19.326Z,13.00
2022-12-11T17:14:01.148Z,11.60
2022-12-11T17:17:43.395Z,11.57
2022-12-11T17:21:25.703Z,11.00
2022-12-11T17:25:11.135Z,11.53
2022-12-11T17:28:53.183Z,12.00
2022-12-11T17:32:38.009Z,12.07
2022-12-11T17:36:21.795Z,10.87
2022-12-11T17:40:05.434Z,11.53
2022-12-11T17:43:48.572Z,10.83
2022-12-11T17:47:30.506Z,11.50
2022-12-11T17:51:20.927Z,13.20
2022-12-11T17:55:03.491Z,11.65
2022-12-11T17:58:45.398Z,12.30
2022-12-11T18:02:27.846Z,13.23
2022-12-11T18:06:12.859Z,13.00
2022-12-11T18:09:54.998Z,12.23
2022-12-11T18:13:37.097Z,14.10
2022-12-11T18:17:18.850Z,11.90
2022-12-11T18:21:01.095Z,12.97
2022-12-11T18:24:42.897Z,12.07
2022-12-11T18:28:24.714Z,10.77
2022-12-11T18:32:06.931Z,11.83
2022-12-11T18:35:50.423Z,10.23
2022-12-11T18:39:32.177Z,10.07
2022-12-11T18:43:14.007Z,9.90
2022-12-11T18:46:55.808Z,9.53
2022-12-11T18:50:37.905Z,9.90
2022-12-11T18:54:19.671Z,9.63
2022-12-11T18:58:01.661Z,10.33
2022-12-11T19:01:43.471Z,13.03
2022-12-11T19:05:25.258Z,10.67
2022-12-11T19:09:09.000Z,10.17
2022-12-11T19:12:50.790Z,17.07
2022-12-11T19:16:35.616Z,15.47
2022-12-11T19:24:23.795Z,11.33
2022-12-11T19:28:05.564Z,10.13
2022-12-11T19:31:47.627Z,9.97
2022-12-11T19:35:29.419Z,9.47
2022-12-11T19:39:13.248Z,9.67
2022-12-11T19:42:55.551Z,24.53
2022-12-11T19:46:38.130Z,13.30
2022-12-11T19:50:19.982Z,12.47
2022-12-11T19:54:02.966Z,10.53
2022-12-11T19:57:44.772Z,16.57
2022-12-11T20:01:30.974Z,12.73
2022-12-11T20:05:13.312Z,13.20
2022-12-11T20:08:55.611Z,10.87
2022-12-11T20:12:37.750Z,11.13
2022-12-11T20:16:33.379Z,10.50
2022-12-11T20:20:21.792Z,26.57
2022-12-11T20:24:03.683Z,13.53
2022-12-11T20:27:45.556Z,11.53
2022-12-11T20:31:27.378Z,10.13
2022-12-11T20:35:10.539Z,10.77
2022-12-11T20:38:52.992Z,11.00
2022-12-11T20:42:34.819Z,9.97
2022-12-11T20:46:17.883Z,11.30
2022-12-11T20:50:00.126Z,11.03
2022-12-11T20:53:42.837Z,11.37
2022-12-11T20:57:24.940Z,11.30
2022-12-11T21:01:07.030Z,11.33
2022-12-11T21:04:48.851Z,12.00
2022-12-11T21:08:30.637Z,12.07
2022-12-11T21:12:12.440Z,11.33
2022-12-11T21:15:56.779Z,12.13
2022-12-11T21:19:38.714Z,17.20
2022-12-11T21:23:20.532Z,18.50
2022-12-11T21:27:02.295Z,16.07
2022-12-11T21:30:44.392Z,12.40
2022-12-11T21:34:26.744Z,11.00
2022-12-11T21:38:08.508Z,10.47
2022-12-11T21:41:50.446Z,10.57
2022-12-11T21:49:38.196Z,7.43
2022-12-11T21:53:19.976Z,9.27
2022-12-11T21:57:01.710Z,8.90
2022-12-11T22:00:45.649Z,8.20
2022-12-11T22:04:27.572Z,7.57
2022-12-11T22:08:09.346Z,6.90
2022-12-11T22:11:56.643Z,6.80
2022-12-11T22:15:40.415Z,6.60
2022-12-11T22:19:22.207Z,7.90
2022-12-11T22:23:03.988Z,25.10
2022-12-11T22:26:45.822Z,16.97
2022-12-11T22:30:27.709Z,14.90
2022-12-11T22:34:09.484Z,14.43
2022-12-11T22:37:52.200Z,12.60
2022-12-11T22:41:34.124Z,12.13
2022-12-11T22:45:15.965Z,10.90
2022-12-11T22:48:58.258Z,12.17
2022-12-11T22:52:40.404Z,14.57
2022-12-11T22:56:22.176Z,12.57
2022-12-11T23:00:10.433Z,12.40
2022-12-11T23:03:52.669Z,11.47
2022-12-11T23:07:34.462Z,10.40
2022-12-11T23:11:24.111Z,11.13
2022-12-11T23:15:07.003Z,11.77
2022-12-11T23:18:49.057Z,11.43
2022-12-11T23:22:30.806Z,11.73
2022-12-11T23:26:14.666Z,11.97
2022-12-11T23:29:56.647Z,12.00
2022-12-11T23:33:38.476Z,10.37
2022-12-11T23:37:20.285Z,10.70
2022-12-11T23:41:04.098Z,10.03
2022-12-11T23:44:45.836Z,9.90
2022-12-11T23:48:27.607Z,9.70
2022-12-11T23:52:11.744Z,7.80
2022-12-11T23:55:54.046Z,9.30
2022-12-11T23:59:36.527Z,7.80
